sensor_id;sensor_type;location;lat;lon;timestamp;P1;durP1;ratioP1;P2;durP2;ratioP2
62933;SDS011;49038;47.600;19.242;2023-04-24T00:02:56;3.62;;;2.35;;
62933;SDS011;49038;47.600;19.242;2023-04-24T00:06:00;4.57;;;3.00;;
62933;SDS011;49038;47.600;19.242;2023-04-24T00:09:03;6.62;;;2.95;;
62933;SDS011;49038;47.600;19.242;2023-04-24T00:12:05;4.43;;;2.67;;
62933;SDS011;49038;47.600;19.242;2023-04-24T00:15:08;3.67;;;2.70;;
62933;SDS011;49038;47.600;19.242;2023-04-24T00:18:10;3.25;;;2.60;;
62933;SDS011;49038;47.600;19.242;2023-04-24T00:21:13;3.80;;;2.85;;
62933;SDS011;49038;47.600;19.242;2023-04-24T00:24:16;3.72;;;2.62;;
62933;SDS011;49038;47.600;19.242;2023-04-24T00:27:20;6.07;;;2.80;;
62933;SDS011;49038;47.600;19.242;2023-04-24T00:30:22;4.53;;;3.35;;
62933;SDS011;49038;47.600;19.242;2023-04-24T00:33:24;4.50;;;3.03;;
62933;SDS011;49038;47.600;19.242;2023-04-24T00:36:26;4.90;;;2.70;;
62933;SDS011;49038;47.600;19.242;2023-04-24T00:39:29;4.45;;;2.70;;
62933;SDS011;49038;47.600;19.242;2023-04-24T00:42:31;3.70;;;3.20;;
62933;SDS011;49038;47.600;19.242;2023-04-24T00:45:33;11.25;;;3.25;;
62933;SDS011;49038;47.600;19.242;2023-04-24T00:48:36;2.80;;;2.28;;
62933;SDS011;49038;47.600;19.242;2023-04-24T00:51:40;4.93;;;3.22;;
62933;SDS011;49038;47.600;19.242;2023-04-24T00:54:47;3.58;;;3.10;;
62933;SDS011;49038;47.600;19.242;2023-04-24T00:57:49;7.20;;;3.03;;
62933;SDS011;49038;47.600;19.242;2023-04-24T01:00:52;3.35;;;2.75;;
62933;SDS011;49038;47.600;19.242;2023-04-24T01:03:55;4.43;;;3.20;;
62933;SDS011;49038;47.600;19.242;2023-04-24T01:06:59;3.42;;;2.62;;
62933;SDS011;49038;47.600;19.242;2023-04-24T01:10:02;4.53;;;2.50;;
62933;SDS011;49038;47.600;19.242;2023-04-24T01:13:05;3.72;;;3.00;;
62933;SDS011;49038;47.600;19.242;2023-04-24T01:16:07;4.10;;;2.60;;
62933;SDS011;49038;47.600;19.242;2023-04-24T01:19:10;5.32;;;3.00;;
62933;SDS011;49038;47.600;19.242;2023-04-24T01:22:14;6.78;;;3.08;;
62933;SDS011;49038;47.600;19.242;2023-04-24T01:25:16;8.80;;;3.58;;
62933;SDS011;49038;47.600;19.242;2023-04-24T01:28:18;3.65;;;2.92;;
62933;SDS011;49038;47.600;19.242;2023-04-24T01:31:21;5.05;;;3.20;;
62933;SDS011;49038;47.600;19.242;2023-04-24T01:34:23;7.30;;;2.60;;
62933;SDS011;49038;47.600;19.242;2023-04-24T01:37:26;3.90;;;2.80;;
62933;SDS011;49038;47.600;19.242;2023-04-24T01:40:28;5.12;;;3.33;;
62933;SDS011;49038;47.600;19.242;2023-04-24T01:43:31;5.00;;;3.33;;
62933;SDS011;49038;47.600;19.242;2023-04-24T01:46:33;2.72;;;2.37;;
62933;SDS011;49038;47.600;19.242;2023-04-24T01:49:37;3.65;;;2.72;;
62933;SDS011;49038;47.600;19.242;2023-04-24T01:52:40;3.33;;;2.47;;
62933;SDS011;49038;47.600;19.242;2023-04-24T01:55:43;3.92;;;2.65;;
62933;SDS011;49038;47.600;19.242;2023-04-24T01:58:45;4.75;;;2.80;;
62933;SDS011;49038;47.600;19.242;2023-04-24T02:01:47;4.72;;;3.62;;
62933;SDS011;49038;47.600;19.242;2023-04-24T02:04:50;3.33;;;2.83;;
62933;SDS011;49038;47.600;19.242;2023-04-24T02:07:52;4.57;;;2.97;;
62933;SDS011;49038;47.600;19.242;2023-04-24T02:10:54;4.62;;;3.03;;
62933;SDS011;49038;47.600;19.242;2023-04-24T02:13:57;6.78;;;2.65;;
62933;SDS011;49038;47.600;19.242;2023-04-24T02:16:59;9.30;;;3.20;;
62933;SDS011;49038;47.600;19.242;2023-04-24T02:20:02;4.03;;;2.90;;
62933;SDS011;49038;47.600;19.242;2023-04-24T02:23:05;4.50;;;3.15;;
62933;SDS011;49038;47.600;19.242;2023-04-24T02:26:07;4.62;;;3.22;;
62933;SDS011;49038;47.600;19.242;2023-04-24T02:29:10;7.62;;;3.37;;
62933;SDS011;49038;47.600;19.242;2023-04-24T02:32:12;4.40;;;2.87;;
62933;SDS011;49038;47.600;19.242;2023-04-24T02:35:17;4.22;;;2.78;;
62933;SDS011;49038;47.600;19.242;2023-04-24T02:38:19;5.43;;;3.50;;
62933;SDS011;49038;47.600;19.242;2023-04-24T02:41:22;4.62;;;3.05;;
62933;SDS011;49038;47.600;19.242;2023-04-24T02:44:24;4.78;;;3.30;;
62933;SDS011;49038;47.600;19.242;2023-04-24T02:47:26;4.80;;;3.37;;
62933;SDS011;49038;47.600;19.242;2023-04-24T02:50:28;4.53;;;3.20;;
62933;SDS011;49038;47.600;19.242;2023-04-24T02:53:31;4.28;;;3.20;;
62933;SDS011;49038;47.600;19.242;2023-04-24T02:56:33;3.97;;;3.28;;
62933;SDS011;49038;47.600;19.242;2023-04-24T02:59:35;4.40;;;3.25;;
62933;SDS011;49038;47.600;19.242;2023-04-24T03:02:37;3.62;;;2.78;;
62933;SDS011;49038;47.600;19.242;2023-04-24T03:05:40;6.18;;;2.90;;
62933;SDS011;49038;47.600;19.242;2023-04-24T03:08:42;5.15;;;3.50;;
62933;SDS011;49038;47.600;19.242;2023-04-24T03:11:45;4.37;;;2.70;;
62933;SDS011;49038;47.600;19.242;2023-04-24T03:14:47;7.85;;;2.97;;
62933;SDS011;49038;47.600;19.242;2023-04-24T03:17:49;7.43;;;3.25;;
62933;SDS011;49038;47.600;19.242;2023-04-24T03:20:51;5.90;;;3.58;;
62933;SDS011;49038;47.600;19.242;2023-04-24T03:23:54;5.05;;;3.10;;
62933;SDS011;49038;47.600;19.242;2023-04-24T03:26:56;6.28;;;3.87;;
62933;SDS011;49038;47.600;19.242;2023-04-24T03:29:59;4.22;;;3.42;;
62933;SDS011;49038;47.600;19.242;2023-04-24T03:33:02;7.95;;;2.90;;
62933;SDS011;49038;47.600;19.242;2023-04-24T03:36:05;5.40;;;3.75;;
62933;SDS011;49038;47.600;19.242;2023-04-24T03:39:07;4.32;;;3.20;;
62933;SDS011;49038;47.600;19.242;2023-04-24T03:42:09;4.25;;;3.12;;
62933;SDS011;49038;47.600;19.242;2023-04-24T03:45:12;4.30;;;3.70;;
62933;SDS011;49038;47.600;19.242;2023-04-24T03:48:14;6.03;;;3.53;;
62933;SDS011;49038;47.600;19.242;2023-04-24T03:51:16;8.52;;;3.45;;
62933;SDS011;49038;47.600;19.242;2023-04-24T03:54:19;8.15;;;3.97;;
62933;SDS011;49038;47.600;19.242;2023-04-24T03:57:21;5.72;;;3.50;;
62933;SDS011;49038;47.600;19.242;2023-04-24T04:00:23;7.00;;;3.90;;
62933;SDS011;49038;47.600;19.242;2023-04-24T04:03:26;6.93;;;3.78;;
62933;SDS011;49038;47.600;19.242;2023-04-24T04:06:29;6.47;;;4.00;;
62933;SDS011;49038;47.600;19.242;2023-04-24T04:09:32;6.50;;;4.32;;
62933;SDS011;49038;47.600;19.242;2023-04-24T04:12:34;5.53;;;4.00;;
62933;SDS011;49038;47.600;19.242;2023-04-24T04:15:37;4.47;;;3.53;;
62933;SDS011;49038;47.600;19.242;2023-04-24T04:18:39;5.07;;;3.72;;
62933;SDS011;49038;47.600;19.242;2023-04-24T04:21:41;4.82;;;3.37;;
62933;SDS011;49038;47.600;19.242;2023-04-24T04:24:43;5.40;;;3.60;;
62933;SDS011;49038;47.600;19.242;2023-04-24T04:27:46;5.72;;;3.58;;
62933;SDS011;49038;47.600;19.242;2023-04-24T04:30:50;6.50;;;3.28;;
62933;SDS011;49038;47.600;19.242;2023-04-24T04:33:55;6.22;;;3.62;;
62933;SDS011;49038;47.600;19.242;2023-04-24T04:36:58;5.57;;;3.70;;
62933;SDS011;49038;47.600;19.242;2023-04-24T04:40:04;6.47;;;3.12;;
62933;SDS011;49038;47.600;19.242;2023-04-24T04:43:09;4.32;;;3.35;;
62933;SDS011;49038;47.600;19.242;2023-04-24T04:46:12;5.28;;;3.37;;
62933;SDS011;49038;47.600;19.242;2023-04-24T04:49:15;4.55;;;3.37;;
62933;SDS011;49038;47.600;19.242;2023-04-24T04:52:18;6.10;;;3.47;;
62933;SDS011;49038;47.600;19.242;2023-04-24T04:55:21;4.78;;;3.05;;
62933;SDS011;49038;47.600;19.242;2023-04-24T04:58:23;5.82;;;3.58;;
62933;SDS011;49038;47.600;19.242;2023-04-24T05:01:26;4.85;;;3.62;;
62933;SDS011;49038;47.600;19.242;2023-04-24T05:04:29;5.25;;;3.55;;
62933;SDS011;49038;47.600;19.242;2023-04-24T05:07:32;5.40;;;3.35;;
62933;SDS011;49038;47.600;19.242;2023-04-24T05:10:34;5.22;;;3.92;;
62933;SDS011;49038;47.600;19.242;2023-04-24T05:13:38;5.12;;;3.45;;
62933;SDS011;49038;47.600;19.242;2023-04-24T05:16:42;7.53;;;3.42;;
62933;SDS011;49038;47.600;19.242;2023-04-24T05:19:44;7.68;;;3.72;;
62933;SDS011;49038;47.600;19.242;2023-04-24T05:22:47;7.22;;;3.83;;
62933;SDS011;49038;47.600;19.242;2023-04-24T05:25:49;9.10;;;3.70;;
62933;SDS011;49038;47.600;19.242;2023-04-24T05:28:51;4.05;;;3.35;;
62933;SDS011;49038;47.600;19.242;2023-04-24T05:31:54;6.78;;;3.75;;
62933;SDS011;49038;47.600;19.242;2023-04-24T05:34:56;5.18;;;4.28;;
62933;SDS011;49038;47.600;19.242;2023-04-24T05:37:59;7.78;;;4.40;;
62933;SDS011;49038;47.600;19.242;2023-04-24T05:41:01;5.03;;;3.45;;
62933;SDS011;49038;47.600;19.242;2023-04-24T05:44:03;5.50;;;3.90;;
62933;SDS011;49038;47.600;19.242;2023-04-24T05:47:05;5.10;;;3.42;;
62933;SDS011;49038;47.600;19.242;2023-04-24T05:50:08;8.95;;;4.00;;
62933;SDS011;49038;47.600;19.242;2023-04-24T05:53:10;5.93;;;4.10;;
62933;SDS011;49038;47.600;19.242;2023-04-24T05:56:12;4.50;;;3.42;;
62933;SDS011;49038;47.600;19.242;2023-04-24T05:59:15;5.65;;;3.40;;
62933;SDS011;49038;47.600;19.242;2023-04-24T06:02:17;7.03;;;4.87;;
62933;SDS011;49038;47.600;19.242;2023-04-24T06:05:20;6.25;;;3.80;;
62933;SDS011;49038;47.600;19.242;2023-04-24T06:08:22;6.20;;;3.95;;
62933;SDS011;49038;47.600;19.242;2023-04-24T06:11:24;4.47;;;3.75;;
62933;SDS011;49038;47.600;19.242;2023-04-24T06:14:27;6.15;;;3.75;;
62933;SDS011;49038;47.600;19.242;2023-04-24T06:17:29;11.25;;;3.92;;
62933;SDS011;49038;47.600;19.242;2023-04-24T06:20:32;7.37;;;4.30;;
62933;SDS011;49038;47.600;19.242;2023-04-24T06:23:34;6.55;;;3.90;;
62933;SDS011;49038;47.600;19.242;2023-04-24T06:26:36;11.45;;;4.20;;
62933;SDS011;49038;47.600;19.242;2023-04-24T06:29:39;26.52;;;4.57;;
62933;SDS011;49038;47.600;19.242;2023-04-24T06:32:41;6.55;;;3.90;;
62933;SDS011;49038;47.600;19.242;2023-04-24T06:35:43;5.50;;;3.50;;
62933;SDS011;49038;47.600;19.242;2023-04-24T06:38:46;7.75;;;3.70;;
62933;SDS011;49038;47.600;19.242;2023-04-24T06:41:48;7.93;;;3.92;;
62933;SDS011;49038;47.600;19.242;2023-04-24T06:44:50;4.03;;;3.28;;
62933;SDS011;49038;47.600;19.242;2023-04-24T06:47:53;6.30;;;3.58;;
62933;SDS011;49038;47.600;19.242;2023-04-24T06:50:55;3.83;;;3.35;;
62933;SDS011;49038;47.600;19.242;2023-04-24T06:53:57;9.35;;;3.90;;
62933;SDS011;49038;47.600;19.242;2023-04-24T06:57:00;4.70;;;3.47;;
62933;SDS011;49038;47.600;19.242;2023-04-24T07:00:03;3.12;;;2.67;;
62933;SDS011;49038;47.600;19.242;2023-04-24T07:03:07;5.12;;;3.33;;
62933;SDS011;49038;47.600;19.242;2023-04-24T07:06:09;5.72;;;3.60;;
62933;SDS011;49038;47.600;19.242;2023-04-24T07:09:13;7.25;;;3.92;;
62933;SDS011;49038;47.600;19.242;2023-04-24T07:12:16;4.43;;;3.40;;
62933;SDS011;49038;47.600;19.242;2023-04-24T07:15:18;7.00;;;4.45;;
62933;SDS011;49038;47.600;19.242;2023-04-24T07:18:22;8.50;;;4.75;;
62933;SDS011;49038;47.600;19.242;2023-04-24T07:21:24;9.00;;;3.80;;
62933;SDS011;49038;47.600;19.242;2023-04-24T07:24:27;5.05;;;3.58;;
62933;SDS011;49038;47.600;19.242;2023-04-24T07:27:31;5.20;;;3.72;;
62933;SDS011;49038;47.600;19.242;2023-04-24T07:30:34;9.13;;;3.37;;
62933;SDS011;49038;47.600;19.242;2023-04-24T07:33:36;3.65;;;3.10;;
62933;SDS011;49038;47.600;19.242;2023-04-24T07:36:38;5.80;;;3.83;;
62933;SDS011;49038;47.600;19.242;2023-04-24T07:39:40;5.43;;;3.42;;
62933;SDS011;49038;47.600;19.242;2023-04-24T07:42:43;7.22;;;3.78;;
62933;SDS011;49038;47.600;19.242;2023-04-24T07:45:46;7.37;;;4.20;;
62933;SDS011;49038;47.600;19.242;2023-04-24T07:48:48;6.82;;;4.60;;
62933;SDS011;49038;47.600;19.242;2023-04-24T07:52:06;7.00;;;3.78;;
62933;SDS011;49038;47.600;19.242;2023-04-24T07:55:08;8.63;;;4.47;;
62933;SDS011;49038;47.600;19.242;2023-04-24T07:58:10;5.25;;;3.60;;
62933;SDS011;49038;47.600;19.242;2023-04-24T08:01:13;4.75;;;3.30;;
62933;SDS011;49038;47.600;19.242;2023-04-24T08:04:15;4.25;;;3.47;;
62933;SDS011;49038;47.600;19.242;2023-04-24T08:07:18;4.80;;;3.62;;
62933;SDS011;49038;47.600;19.242;2023-04-24T08:10:21;5.43;;;3.80;;
62933;SDS011;49038;47.600;19.242;2023-04-24T08:13:26;5.65;;;3.70;;
62933;SDS011;49038;47.600;19.242;2023-04-24T08:16:29;5.60;;;3.70;;
62933;SDS011;49038;47.600;19.242;2023-04-24T08:19:31;5.75;;;4.03;;
62933;SDS011;49038;47.600;19.242;2023-04-24T08:22:33;8.23;;;3.90;;
62933;SDS011;49038;47.600;19.242;2023-04-24T08:25:35;5.03;;;3.65;;
62933;SDS011;49038;47.600;19.242;2023-04-24T08:28:38;4.35;;;3.20;;
62933;SDS011;49038;47.600;19.242;2023-04-24T08:31:40;5.80;;;4.22;;
62933;SDS011;49038;47.600;19.242;2023-04-24T08:34:42;6.12;;;3.72;;
62933;SDS011;49038;47.600;19.242;2023-04-24T08:37:45;9.00;;;3.85;;
62933;SDS011;49038;47.600;19.242;2023-04-24T08:40:47;8.75;;;3.97;;
62933;SDS011;49038;47.600;19.242;2023-04-24T08:43:51;9.80;;;4.35;;
62933;SDS011;49038;47.600;19.242;2023-04-24T08:46:53;5.80;;;3.75;;
62933;SDS011;49038;47.600;19.242;2023-04-24T08:49:56;6.03;;;4.32;;
62933;SDS011;49038;47.600;19.242;2023-04-24T08:53:00;4.57;;;3.58;;
62933;SDS011;49038;47.600;19.242;2023-04-24T08:56:05;5.87;;;3.90;;
62933;SDS011;49038;47.600;19.242;2023-04-24T08:59:08;5.78;;;4.40;;
62933;SDS011;49038;47.600;19.242;2023-04-24T09:02:10;6.03;;;4.25;;
62933;SDS011;49038;47.600;19.242;2023-04-24T09:05:13;5.50;;;3.40;;
62933;SDS011;49038;47.600;19.242;2023-04-24T09:08:17;7.97;;;4.28;;
62933;SDS011;49038;47.600;19.242;2023-04-24T09:11:20;5.47;;;3.85;;
62933;SDS011;49038;47.600;19.242;2023-04-24T09:14:23;4.93;;;3.85;;
62933;SDS011;49038;47.600;19.242;2023-04-24T09:17:25;5.45;;;3.92;;
62933;SDS011;49038;47.600;19.242;2023-04-24T09:20:30;11.20;;;3.55;;
62933;SDS011;49038;47.600;19.242;2023-04-24T09:23:33;5.05;;;3.90;;
62933;SDS011;49038;47.600;19.242;2023-04-24T09:26:35;7.82;;;3.62;;
62933;SDS011;49038;47.600;19.242;2023-04-24T09:29:38;4.45;;;3.40;;
62933;SDS011;49038;47.600;19.242;2023-04-24T09:32:40;4.85;;;3.75;;
62933;SDS011;49038;47.600;19.242;2023-04-24T09:35:50;4.53;;;3.10;;
62933;SDS011;49038;47.600;19.242;2023-04-24T09:38:55;4.47;;;2.97;;
62933;SDS011;49038;47.600;19.242;2023-04-24T09:42:00;3.92;;;3.17;;
62933;SDS011;49038;47.600;19.242;2023-04-24T09:45:03;4.30;;;3.05;;
62933;SDS011;49038;47.600;19.242;2023-04-24T09:48:16;6.10;;;3.67;;
62933;SDS011;49038;47.600;19.242;2023-04-24T09:51:18;5.22;;;3.58;;
62933;SDS011;49038;47.600;19.242;2023-04-24T09:54:35;4.75;;;3.30;;
62933;SDS011;49038;47.600;19.242;2023-04-24T09:57:48;3.92;;;2.53;;
62933;SDS011;49038;47.600;19.242;2023-04-24T10:00:55;4.00;;;2.78;;
62933;SDS011;49038;47.600;19.242;2023-04-24T10:03:58;3.78;;;2.70;;
62933;SDS011;49038;47.600;19.242;2023-04-24T10:07:00;3.22;;;2.58;;
62933;SDS011;49038;47.600;19.242;2023-04-24T10:10:09;6.45;;;2.15;;
62933;SDS011;49038;47.600;19.242;2023-04-24T10:13:13;3.92;;;2.60;;
62933;SDS011;49038;47.600;19.242;2023-04-24T10:16:16;6.90;;;3.25;;
62933;SDS011;49038;47.600;19.242;2023-04-24T10:19:19;4.07;;;2.60;;
62933;SDS011;49038;47.600;19.242;2023-04-24T10:22:22;3.53;;;2.72;;
62933;SDS011;49038;47.600;19.242;2023-04-24T10:25:25;3.87;;;2.75;;
62933;SDS011;49038;47.600;19.242;2023-04-24T10:28:30;3.60;;;2.35;;
62933;SDS011;49038;47.600;19.242;2023-04-24T10:31:33;3.92;;;2.60;;
62933;SDS011;49038;47.600;19.242;2023-04-24T10:34:36;4.97;;;2.78;;
62933;SDS011;49038;47.600;19.242;2023-04-24T10:37:51;2.72;;;2.10;;
62933;SDS011;49038;47.600;19.242;2023-04-24T10:41:10;2.50;;;1.92;;
62933;SDS011;49038;47.600;19.242;2023-04-24T10:47:20;7.43;;;2.15;;
62933;SDS011;49038;47.600;19.242;2023-04-24T10:50:22;4.45;;;1.77;;
62933;SDS011;49038;47.600;19.242;2023-04-24T10:53:27;3.03;;;2.08;;
62933;SDS011;49038;47.600;19.242;2023-04-24T10:56:32;2.30;;;1.95;;
62933;SDS011;49038;47.600;19.242;2023-04-24T10:59:35;2.58;;;2.08;;
62933;SDS011;49038;47.600;19.242;2023-04-24T11:02:39;5.60;;;2.92;;
62933;SDS011;49038;47.600;19.242;2023-04-24T11:05:49;3.60;;;2.10;;
62933;SDS011;49038;47.600;19.242;2023-04-24T11:08:57;3.97;;;2.30;;
62933;SDS011;49038;47.600;19.242;2023-04-24T11:12:08;5.10;;;2.33;;
62933;SDS011;49038;47.600;19.242;2023-04-24T11:15:16;4.05;;;2.22;;
62933;SDS011;49038;47.600;19.242;2023-04-24T11:18:21;5.00;;;2.78;;
62933;SDS011;49038;47.600;19.242;2023-04-24T11:21:24;3.42;;;2.62;;
62933;SDS011;49038;47.600;19.242;2023-04-24T11:27:43;5.15;;;2.92;;
62933;SDS011;49038;47.600;19.242;2023-04-24T11:30:47;3.67;;;2.80;;
62933;SDS011;49038;47.600;19.242;2023-04-24T11:33:50;4.43;;;2.58;;
62933;SDS011;49038;47.600;19.242;2023-04-24T11:36:52;7.37;;;2.80;;
62933;SDS011;49038;47.600;19.242;2023-04-24T11:39:56;3.28;;;2.60;;
62933;SDS011;49038;47.600;19.242;2023-04-24T11:43:00;7.25;;;3.70;;
62933;SDS011;49038;47.600;19.242;2023-04-24T11:46:02;6.00;;;2.80;;
62933;SDS011;49038;47.600;19.242;2023-04-24T11:49:07;4.30;;;2.83;;
62933;SDS011;49038;47.600;19.242;2023-04-24T11:52:09;4.78;;;3.30;;
62933;SDS011;49038;47.600;19.242;2023-04-24T11:58:20;6.12;;;2.97;;
62933;SDS011;49038;47.600;19.242;2023-04-24T12:01:23;5.72;;;3.20;;
62933;SDS011;49038;47.600;19.242;2023-04-24T12:04:26;3.28;;;2.75;;
62933;SDS011;49038;47.600;19.242;2023-04-24T12:07:28;4.72;;;2.53;;
62933;SDS011;49038;47.600;19.242;2023-04-24T12:10:31;4.30;;;3.10;;
62933;SDS011;49038;47.600;19.242;2023-04-24T12:13:35;5.10;;;2.75;;
62933;SDS011;49038;47.600;19.242;2023-04-24T12:16:37;3.55;;;2.90;;
62933;SDS011;49038;47.600;19.242;2023-04-24T12:19:44;4.97;;;3.67;;
62933;SDS011;49038;47.600;19.242;2023-04-24T12:22:48;4.68;;;3.08;;
62933;SDS011;49038;47.600;19.242;2023-04-24T12:25:52;8.32;;;3.80;;
62933;SDS011;49038;47.600;19.242;2023-04-24T12:28:55;6.65;;;3.35;;
62933;SDS011;49038;47.600;19.242;2023-04-24T12:31:57;4.95;;;4.20;;
62933;SDS011;49038;47.600;19.242;2023-04-24T12:34:59;4.07;;;3.15;;
62933;SDS011;49038;47.600;19.242;2023-04-24T12:38:11;3.95;;;3.10;;
62933;SDS011;49038;47.600;19.242;2023-04-24T12:41:14;4.85;;;3.08;;
62933;SDS011;49038;47.600;19.242;2023-04-24T12:44:17;5.15;;;3.37;;
62933;SDS011;49038;47.600;19.242;2023-04-24T12:47:20;6.30;;;3.58;;
62933;SDS011;49038;47.600;19.242;2023-04-24T12:50:22;5.22;;;2.72;;
62933;SDS011;49038;47.600;19.242;2023-04-24T12:53:25;5.12;;;2.10;;
62933;SDS011;49038;47.600;19.242;2023-04-24T12:56:28;4.97;;;2.33;;
62933;SDS011;49038;47.600;19.242;2023-04-24T12:59:30;6.68;;;2.30;;
62933;SDS011;49038;47.600;19.242;2023-04-24T13:02:32;4.80;;;2.37;;
62933;SDS011;49038;47.600;19.242;2023-04-24T13:05:36;4.00;;;2.53;;
62933;SDS011;49038;47.600;19.242;2023-04-24T13:08:38;4.00;;;2.80;;
62933;SDS011;49038;47.600;19.242;2023-04-24T13:11:40;3.95;;;2.28;;
62933;SDS011;49038;47.600;19.242;2023-04-24T13:14:42;3.58;;;2.45;;
62933;SDS011;49038;47.600;19.242;2023-04-24T13:17:45;5.35;;;3.00;;
62933;SDS011;49038;47.600;19.242;2023-04-24T13:20:47;3.47;;;2.60;;
62933;SDS011;49038;47.600;19.242;2023-04-24T13:23:49;4.35;;;2.55;;
62933;SDS011;49038;47.600;19.242;2023-04-24T13:26:52;3.25;;;2.40;;
62933;SDS011;49038;47.600;19.242;2023-04-24T13:29:55;2.95;;;2.05;;
62933;SDS011;49038;47.600;19.242;2023-04-24T13:32:57;3.60;;;2.05;;
62933;SDS011;49038;47.600;19.242;2023-04-24T13:35:59;5.00;;;2.10;;
62933;SDS011;49038;47.600;19.242;2023-04-24T13:39:02;2.87;;;2.03;;
62933;SDS011;49038;47.600;19.242;2023-04-24T13:42:06;3.97;;;2.10;;
62933;SDS011;49038;47.600;19.242;2023-04-24T13:45:08;4.00;;;2.00;;
62933;SDS011;49038;47.600;19.242;2023-04-24T13:48:26;4.18;;;1.98;;
62933;SDS011;49038;47.600;19.242;2023-04-24T13:51:28;3.17;;;1.90;;
62933;SDS011;49038;47.600;19.242;2023-04-24T13:54:31;3.22;;;1.92;;
62933;SDS011;49038;47.600;19.242;2023-04-24T13:57:33;5.28;;;2.15;;
62933;SDS011;49038;47.600;19.242;2023-04-24T14:00:36;3.00;;;1.58;;
62933;SDS011;49038;47.600;19.242;2023-04-24T14:03:38;4.68;;;2.80;;
62933;SDS011;49038;47.600;19.242;2023-04-24T14:06:41;3.55;;;1.90;;
62933;SDS011;49038;47.600;19.242;2023-04-24T14:09:43;3.22;;;2.00;;
62933;SDS011;49038;47.600;19.242;2023-04-24T14:12:46;2.37;;;1.92;;
62933;SDS011;49038;47.600;19.242;2023-04-24T14:15:48;5.15;;;2.30;;
62933;SDS011;49038;47.600;19.242;2023-04-24T14:18:50;4.45;;;1.77;;
62933;SDS011;49038;47.600;19.242;2023-04-24T14:21:52;3.90;;;2.20;;
62933;SDS011;49038;47.600;19.242;2023-04-24T14:24:57;2.72;;;1.98;;
62933;SDS011;49038;47.600;19.242;2023-04-24T14:27:59;3.00;;;2.10;;
62933;SDS011;49038;47.600;19.242;2023-04-24T14:31:02;5.45;;;3.42;;
62933;SDS011;49038;47.600;19.242;2023-04-24T14:34:04;7.57;;;3.00;;
62933;SDS011;49038;47.600;19.242;2023-04-24T14:37:06;4.12;;;2.67;;
62933;SDS011;49038;47.600;19.242;2023-04-24T14:40:09;4.93;;;2.80;;
62933;SDS011;49038;47.600;19.242;2023-04-24T14:43:31;4.30;;;3.03;;
62933;SDS011;49038;47.600;19.242;2023-04-24T14:46:34;6.62;;;2.60;;
62933;SDS011;49038;47.600;19.242;2023-04-24T14:49:36;6.43;;;3.72;;
62933;SDS011;49038;47.600;19.242;2023-04-24T14:52:39;7.37;;;3.40;;
62933;SDS011;49038;47.600;19.242;2023-04-24T14:55:42;5.37;;;2.90;;
62933;SDS011;49038;47.600;19.242;2023-04-24T14:58:44;3.15;;;2.83;;
62933;SDS011;49038;47.600;19.242;2023-04-24T15:01:49;4.22;;;3.12;;
62933;SDS011;49038;47.600;19.242;2023-04-24T15:05:03;3.92;;;2.87;;
62933;SDS011;49038;47.600;19.242;2023-04-24T15:08:06;4.20;;;3.10;;
62933;SDS011;49038;47.600;19.242;2023-04-24T15:11:09;6.60;;;5.20;;
62933;SDS011;49038;47.600;19.242;2023-04-24T15:14:11;8.70;;;5.25;;
62933;SDS011;49038;47.600;19.242;2023-04-24T15:17:14;10.35;;;4.57;;
62933;SDS011;49038;47.600;19.242;2023-04-24T15:20:16;8.80;;;4.65;;
62933;SDS011;49038;47.600;19.242;2023-04-24T15:23:19;7.55;;;4.80;;
62933;SDS011;49038;47.600;19.242;2023-04-24T15:26:22;5.07;;;3.80;;
62933;SDS011;49038;47.600;19.242;2023-04-24T15:29:25;4.43;;;3.58;;
62933;SDS011;49038;47.600;19.242;2023-04-24T15:32:29;4.78;;;3.10;;
62933;SDS011;49038;47.600;19.242;2023-04-24T15:35:31;4.85;;;3.40;;
62933;SDS011;49038;47.600;19.242;2023-04-24T15:38:35;6.00;;;3.55;;
62933;SDS011;49038;47.600;19.242;2023-04-24T15:41:38;5.22;;;3.33;;
62933;SDS011;49038;47.600;19.242;2023-04-24T15:44:40;6.25;;;5.05;;
62933;SDS011;49038;47.600;19.242;2023-04-24T15:47:44;8.05;;;4.50;;
62933;SDS011;49038;47.600;19.242;2023-04-24T15:50:48;12.10;;;6.95;;
62933;SDS011;49038;47.600;19.242;2023-04-24T15:53:51;13.77;;;7.82;;
62933;SDS011;49038;47.600;19.242;2023-04-24T15:56:53;10.93;;;7.30;;
62933;SDS011;49038;47.600;19.242;2023-04-24T15:59:55;6.45;;;4.75;;
62933;SDS011;49038;47.600;19.242;2023-04-24T16:02:59;8.00;;;4.40;;
62933;SDS011;49038;47.600;19.242;2023-04-24T16:06:03;4.37;;;3.58;;
62933;SDS011;49038;47.600;19.242;2023-04-24T16:09:05;7.90;;;5.68;;
62933;SDS011;49038;47.600;19.242;2023-04-24T16:12:09;8.98;;;5.85;;
62933;SDS011;49038;47.600;19.242;2023-04-24T16:15:11;11.55;;;6.90;;
62933;SDS011;49038;47.600;19.242;2023-04-24T16:18:14;11.60;;;6.85;;
62933;SDS011;49038;47.600;19.242;2023-04-24T16:21:19;11.05;;;6.55;;
62933;SDS011;49038;47.600;19.242;2023-04-24T16:24:22;11.93;;;7.55;;
62933;SDS011;49038;47.600;19.242;2023-04-24T16:27:24;8.07;;;5.93;;
62933;SDS011;49038;47.600;19.242;2023-04-24T16:30:27;13.02;;;6.65;;
62933;SDS011;49038;47.600;19.242;2023-04-24T16:33:29;7.37;;;4.95;;
62933;SDS011;49038;47.600;19.242;2023-04-24T16:36:33;9.27;;;6.12;;
62933;SDS011;49038;47.600;19.242;2023-04-24T16:39:37;8.63;;;5.00;;
62933;SDS011;49038;47.600;19.242;2023-04-24T16:42:39;13.77;;;8.38;;
62933;SDS011;49038;47.600;19.242;2023-04-24T16:45:42;18.85;;;10.85;;
62933;SDS011;49038;47.600;19.242;2023-04-24T16:48:44;24.15;;;12.48;;
62933;SDS011;49038;47.600;19.242;2023-04-24T16:51:47;19.75;;;10.38;;
62933;SDS011;49038;47.600;19.242;2023-04-24T16:54:49;12.02;;;6.75;;
62933;SDS011;49038;47.600;19.242;2023-04-24T16:57:52;9.82;;;6.47;;
62933;SDS011;49038;47.600;19.242;2023-04-24T17:00:54;10.57;;;5.43;;
62933;SDS011;49038;47.600;19.242;2023-04-24T17:03:57;9.18;;;5.50;;
62933;SDS011;49038;47.600;19.242;2023-04-24T17:07:00;17.77;;;6.55;;
62933;SDS011;49038;47.600;19.242;2023-04-24T17:10:03;8.20;;;5.20;;
62933;SDS011;49038;47.600;19.242;2023-04-24T17:13:06;6.68;;;4.35;;
62933;SDS011;49038;47.600;19.242;2023-04-24T17:16:09;10.60;;;5.28;;
62933;SDS011;49038;47.600;19.242;2023-04-24T17:19:11;9.77;;;5.53;;
62933;SDS011;49038;47.600;19.242;2023-04-24T17:22:14;9.13;;;5.05;;
62933;SDS011;49038;47.600;19.242;2023-04-24T17:25:16;7.95;;;3.70;;
62933;SDS011;49038;47.600;19.242;2023-04-24T17:28:28;8.98;;;4.12;;
62933;SDS011;49038;47.600;19.242;2023-04-24T17:31:32;12.13;;;5.93;;
62933;SDS011;49038;47.600;19.242;2023-04-24T17:34:34;8.30;;;5.40;;
62933;SDS011;49038;47.600;19.242;2023-04-24T17:37:37;7.05;;;5.07;;
62933;SDS011;49038;47.600;19.242;2023-04-24T17:40:40;5.15;;;4.07;;
62933;SDS011;49038;47.600;19.242;2023-04-24T17:43:42;7.82;;;5.62;;
62933;SDS011;49038;47.600;19.242;2023-04-24T17:46:46;12.65;;;8.20;;
62933;SDS011;49038;47.600;19.242;2023-04-24T17:49:49;8.05;;;5.55;;
62933;SDS011;49038;47.600;19.242;2023-04-24T17:52:52;8.43;;;4.82;;
62933;SDS011;49038;47.600;19.242;2023-04-24T17:55:54;5.87;;;4.22;;
62933;SDS011;49038;47.600;19.242;2023-04-24T17:59:03;6.28;;;4.15;;
62933;SDS011;49038;47.600;19.242;2023-04-24T18:02:06;6.20;;;4.10;;
62933;SDS011;49038;47.600;19.242;2023-04-24T18:05:08;4.53;;;3.40;;
62933;SDS011;49038;47.600;19.242;2023-04-24T18:08:10;4.53;;;3.60;;
62933;SDS011;49038;47.600;19.242;2023-04-24T18:11:13;5.00;;;3.40;;
62933;SDS011;49038;47.600;19.242;2023-04-24T18:14:15;7.70;;;4.43;;
62933;SDS011;49038;47.600;19.242;2023-04-24T18:17:18;7.15;;;4.37;;